»·PEaware :: PSV130 KSJC-KBUR

PSV130 :: KSJC-KBUR

FLIGHT INFORMATION

Flight Status: Arrived
Operator:
Power Set Virtual (website)
More flights by this operator :: More flights under this callsign
Pilot: David J. (24489)
Aircraft: BOEING 737-600
(B736)
More flights by this aircraft type
Origin: KSJC Mineta San Jose Intl
United States
Destination: KBUR Bob Hope-Burbank
United States
More flights between these airports :: More routes between these airports
Route: TECKY3 EBAYE BURGL HONZK ROKKR2
File this flight plan on PilotEdge
Remarks: RMK / SIMBRIEF
Altitude:
(Current/Filed)
37,000ft
Speed:
(Current/Filed)
445kts
Departed: 19-Nov-20 03:46 PM
Arrived: 19-Nov-20 04:36 PM
Distance/Time
Traveled:
258nm/0:50
Distance/Time
To Go:
Arrived

Flight Plot

Page will automatically refresh every two minutes.

Flight plan parsing failed; only flown route is shown


Map Options




Map Legend


Flown Route
Filed Route
Departure Airport
Arrival Airport
Navaid (VOR, NDB)
Fix

Horizontal Profiles

Position Reports

Time Latitude Longitude Heading Altitude Ground
Speed
19-Nov-20 15:20 37.364261 -121.924720 48 63ft 0kts
19-Nov-20 15:21 37.364261 -121.924720 48 63ft 0kts
19-Nov-20 15:22 37.364261 -121.924720 48 63ft 0kts
19-Nov-20 15:23 37.364261 -121.924720 48 63ft 0kts
19-Nov-20 15:24 37.364261 -121.924720 48 63ft 0kts
19-Nov-20 15:25 37.364261 -121.924720 48 63ft 0kts
19-Nov-20 15:26 37.364261 -121.924720 48 63ft 0kts
19-Nov-20 15:27 37.364261 -121.924720 48 63ft 0kts
19-Nov-20 15:28 37.364261 -121.924720 48 63ft 0kts
19-Nov-20 15:29 37.364261 -121.924720 48 63ft 0kts
19-Nov-20 15:30 37.364261 -121.924720 48 63ft 0kts
19-Nov-20 15:31 37.364261 -121.924720 48 63ft 0kts
19-Nov-20 15:32 37.364261 -121.924720 48 63ft 0kts
19-Nov-20 15:33 37.364261 -121.924720 48 63ft 0kts
19-Nov-20 15:34 37.364110 -121.924954 56 63ft 2kts
19-Nov-20 15:35 37.364094 -121.925651 138 63ft 0kts
19-Nov-20 15:36 37.364094 -121.925651 138 63ft 0kts
19-Nov-20 15:37 37.364094 -121.925651 138 63ft 0kts
19-Nov-20 15:38 37.362558 -121.923965 140 63ft 14kts
19-Nov-20 15:39 37.357800 -121.918750 138 63ft 28kts
19-Nov-20 15:40 37.352997 -121.914395 237 63ft 6kts
19-Nov-20 15:41 37.352967 -121.914459 239 63ft 0kts
19-Nov-20 15:42 37.352955 -121.914483 236 63ft 0kts
19-Nov-20 15:43 37.352955 -121.914483 236 63ft 0kts
19-Nov-20 15:44 37.352955 -121.914484 236 63ft 0kts
19-Nov-20 15:45 37.368811 -121.933179 319 961ft 140kts
19-Nov-20 15:46 37.401334 -121.971032 317 3290ft 209kts
19-Nov-20 15:47 37.459195 -121.954080 62 4988ft 278kts
19-Nov-20 15:48 37.421507 -121.886363 161 5028ft 280kts
19-Nov-20 15:49 37.368248 -121.834931 134 7502ft 220kts
19-Nov-20 15:50 37.320995 -121.779029 137 10261ft 243kts
19-Nov-20 15:51 37.267168 -121.717675 141 12302ft 289kts
19-Nov-20 15:52 37.200422 -121.642387 142 13421ft 351kts
19-Nov-20 15:53 37.122418 -121.554427 141 14103ft 398kts
19-Nov-20 15:54 37.038027 -121.460170 143 15177ft 410kts
19-Nov-20 15:55 36.950251 -121.367459 144 16228ft 418kts
19-Nov-20 15:56 36.860680 -121.272474 144 17147ft 424kts
19-Nov-20 15:57 36.770267 -121.175909 144 17946ft 430kts
19-Nov-20 15:58 36.682126 -121.082951 145 18656ft 435kts
19-Nov-20 15:59 36.597369 -120.993791 145 19261ft 439kts
19-Nov-20 16:00 36.502279 -120.897578 146 19877ft 442kts
19-Nov-20 16:01 36.406392 -120.800670 146 20398ft 446kts
19-Nov-20 16:02 36.309742 -120.702796 146 20867ft 450kts
19-Nov-20 16:03 36.211146 -120.603161 147 23240ft 465kts
19-Nov-20 16:04 36.109306 -120.500756 147 25340ft 478kts
19-Nov-20 16:05 36.004775 -120.395972 148 27200ft 489kts
19-Nov-20 16:06 35.897851 -120.289547 148 28808ft 497kts
19-Nov-20 16:07 35.796453 -120.205562 156 30486ft 486kts
19-Nov-20 16:08 35.679813 -120.118856 158 32029ft 488kts
19-Nov-20 16:09 35.555307 -120.057276 167 33527ft 481kts
19-Nov-20 16:10 35.429342 -120.000435 167 35104ft 478kts
19-Nov-20 16:11 35.305229 -119.944057 167 35395ft 474kts
19-Nov-20 16:12 35.183840 -119.889441 167 33296ft 455kts
19-Nov-20 16:13 35.076796 -119.825069 150 28339ft 462kts
19-Nov-20 16:14 34.983705 -119.729697 146 24343ft 426kts
19-Nov-20 16:15 34.895292 -119.639266 145 21234ft 406kts
19-Nov-20 16:16 34.820787 -119.537895 133 19238ft 393kts
19-Nov-20 16:17 34.753313 -119.436600 132 17365ft 374kts
19-Nov-20 16:18 34.692494 -119.344333 133 15670ft 359kts
19-Nov-20 16:19 34.631357 -119.246558 124 14956ft 369kts
19-Nov-20 16:20 34.582979 -119.146557 123 13909ft 339kts
19-Nov-20 16:21 34.537363 -119.064063 137 11955ft 315kts
19-Nov-20 16:22 34.469578 -119.000732 144 10148ft 300kts
19-Nov-20 16:23 34.405395 -118.939000 135 8535ft 286kts
19-Nov-20 16:24 34.372339 -118.855634 112 7061ft 267kts
19-Nov-20 16:25 34.354805 -118.770092 97 5196ft 260kts
19-Nov-20 16:26 34.346220 -118.690993 96 5033ft 261kts
19-Nov-20 16:27 34.341629 -118.606966 95 4702ft 228kts
19-Nov-20 16:28 34.336746 -118.535140 93 4860ft 202kts
19-Nov-20 16:29 34.334833 -118.473361 91 4194ft 157kts
19-Nov-20 16:30 34.328203 -118.426812 115 3209ft 136kts
19-Nov-20 16:31 34.301993 -118.394913 144 2597ft 134kts
19-Nov-20 16:32 34.268644 -118.375929 162 2001ft 134kts
19-Nov-20 16:34 34.231884 -118.365657 167 1193ft 139kts
19-Nov-20 16:35 34.201564 -118.357398 163 729ft 104kts
19-Nov-20 16:36 34.195574 -118.355083 7 729ft 0kts
19-Nov-20 16:37 34.196052 -118.355240 341 729ft 15kts
19-Nov-20 16:38 34.197193 -118.352525 89 729ft 8kts
19-Nov-20 16:39 34.196758 -118.351044 180 729ft 3kts
19-Nov-20 16:40 34.196740 -118.351045 181 729ft 0kts
19-Nov-20 16:41 34.196740 -118.351045 181 729ft 0kts
19-Nov-20 16:42 34.196740 -118.351045 181 729ft 0kts
19-Nov-20 16:43 34.196740 -118.351045 181 729ft 0kts
19-Nov-20 16:44 34.196740 -118.351045 181 729ft 0kts

Navigation Log

Ident Type
Flight plan parsing failed, navigation log unavailable